sensor_id;sensor_type;location;lat;lon;timestamp;pressure;altitude;pressure_sealevel;temperature;humidity
71966;BME280;59836;52.132;5.442;2023-02-12T00:00:10;103904.25;;;7.35;90.07
71966;BME280;59836;52.132;5.442;2023-02-12T00:02:43;103904.41;;;7.33;89.78
71966;BME280;59836;52.132;5.442;2023-02-12T00:05:10;103902.38;;;7.35;90.04
71966;BME280;59836;52.132;5.442;2023-02-12T00:07:36;103906.09;;;7.34;90.32
71966;BME280;59836;52.132;5.442;2023-02-12T00:10:03;103906.28;;;7.33;90.42
71966;BME280;59836;52.132;5.442;2023-02-12T00:12:30;103904.41;;;7.33;90.27
71966;BME280;59836;52.132;5.442;2023-02-12T00:14:58;103900.91;;;7.33;90.14
71966;BME280;59836;52.132;5.442;2023-02-12T00:17:24;103897.34;;;7.32;90.51
71966;BME280;59836;52.132;5.442;2023-02-12T00:19:51;103895.50;;;7.33;90.05
71966;BME280;59836;52.132;5.442;2023-02-12T00:22:17;103903.59;;;7.33;89.95
71966;BME280;59836;52.132;5.442;2023-02-12T00:24:46;103908.13;;;7.32;90.30
71966;BME280;59836;52.132;5.442;2023-02-12T00:27:12;103907.31;;;7.32;90.29
71966;BME280;59836;52.132;5.442;2023-02-12T00:29:39;103903.75;;;7.31;89.98
71966;BME280;59836;52.132;5.442;2023-02-12T00:32:06;103905.63;;;7.31;90.47
71966;BME280;59836;52.132;5.442;2023-02-12T00:34:32;103893.28;;;7.28;90.28
71966;BME280;59836;52.132;5.442;2023-02-12T00:37:13;103902.25;;;7.29;90.33
71966;BME280;59836;52.132;5.442;2023-02-12T00:39:40;103906.78;;;7.28;90.48
71966;BME280;59836;52.132;5.442;2023-02-12T00:42:07;103910.34;;;7.29;90.33
71966;BME280;59836;52.132;5.442;2023-02-12T00:44:40;103899.69;;;7.27;90.54
71966;BME280;59836;52.132;5.442;2023-02-12T00:47:09;103909.34;;;7.30;90.46
71966;BME280;59836;52.132;5.442;2023-02-12T00:49:38;103904.75;;;7.30;90.45
71966;BME280;59836;52.132;5.442;2023-02-12T00:52:04;103897.69;;;7.29;90.32
71966;BME280;59836;52.132;5.442;2023-02-12T00:54:41;103899.69;;;7.27;90.11
71966;BME280;59836;52.132;5.442;2023-02-12T00:57:10;103899.69;;;7.27;90.36
71966;BME280;59836;52.132;5.442;2023-02-12T00:59:37;103904.44;;;7.25;90.45
71966;BME280;59836;52.132;5.442;2023-02-12T01:02:42;103903.75;;;7.23;90.64
71966;BME280;59836;52.132;5.442;2023-02-12T01:05:11;103897.69;;;7.21;90.54
71966;BME280;59836;52.132;5.442;2023-02-12T01:07:37;103898.69;;;7.20;90.44
71966;BME280;59836;52.132;5.442;2023-02-12T01:10:06;103907.13;;;7.17;90.32
71966;BME280;59836;52.132;5.442;2023-02-12T01:12:34;103917.09;;;7.16;90.55
71966;BME280;59836;52.132;5.442;2023-02-12T01:15:00;103906.47;;;7.15;90.70
71966;BME280;59836;52.132;5.442;2023-02-12T01:17:32;103907.31;;;7.15;90.65
71966;BME280;59836;52.132;5.442;2023-02-12T01:19:58;103909.16;;;7.15;90.40
71966;BME280;59836;52.132;5.442;2023-02-12T01:22:33;103896.69;;;7.14;90.08
71966;BME280;59836;52.132;5.442;2023-02-12T01:25:02;103904.09;;;7.12;90.63
71966;BME280;59836;52.132;5.442;2023-02-12T01:27:29;103905.78;;;7.13;90.46
71966;BME280;59836;52.132;5.442;2023-02-12T01:29:58;103906.81;;;7.12;90.73
71966;BME280;59836;52.132;5.442;2023-02-12T01:32:25;103908.00;;;7.09;90.61
71966;BME280;59836;52.132;5.442;2023-02-12T01:34:57;103908.00;;;7.09;90.64
71966;BME280;59836;52.132;5.442;2023-02-12T01:40:33;103905.47;;;7.07;90.73
71966;BME280;59836;52.132;5.442;2023-02-12T01:43:29;103909.16;;;7.06;90.96
71966;BME280;59836;52.132;5.442;2023-02-12T01:45:58;103905.78;;;7.04;90.70
71966;BME280;59836;52.132;5.442;2023-02-12T01:48:28;103904.09;;;7.03;90.93
71966;BME280;59836;52.132;5.442;2023-02-12T01:50:58;103905.13;;;7.02;90.92
71966;BME280;59836;52.132;5.442;2023-02-12T01:53:32;103913.22;;;7.02;90.86
71966;BME280;59836;52.132;5.442;2023-02-12T01:56:08;103906.47;;;6.98;90.64
71966;BME280;59836;52.132;5.442;2023-02-12T01:58:37;103906.47;;;6.98;91.12
71966;BME280;59836;52.132;5.442;2023-02-12T02:01:07;103903.09;;;6.96;91.22
71966;BME280;59836;52.132;5.442;2023-02-12T02:03:58;103899.72;;;6.94;91.00
71966;BME280;59836;52.132;5.442;2023-02-12T02:06:41;103900.75;;;6.93;90.73
71966;BME280;59836;52.132;5.442;2023-02-12T02:09:09;103893.84;;;6.90;90.68
71966;BME280;59836;52.132;5.442;2023-02-12T02:11:36;103895.38;;;6.85;90.42
71966;BME280;59836;52.132;5.442;2023-02-12T02:14:26;103900.75;;;6.76;90.34
71966;BME280;59836;52.132;5.442;2023-02-12T02:17:19;103901.25;;;6.72;90.49
71966;BME280;59836;52.132;5.442;2023-02-12T02:25:26;103900.75;;;6.60;91.35
71966;BME280;59836;52.132;5.442;2023-02-12T02:33:55;103900.41;;;6.55;91.31
71966;BME280;59836;52.132;5.442;2023-02-12T02:36:45;103899.72;;;6.53;91.62
71966;BME280;59836;52.132;5.442;2023-02-12T02:39:48;103900.88;;;6.50;91.55
71966;BME280;59836;52.132;5.442;2023-02-12T02:42:53;103893.81;;;6.49;91.63
71966;BME280;59836;52.132;5.442;2023-02-12T02:45:54;103897.69;;;6.46;91.78
71966;BME280;59836;52.132;5.442;2023-02-12T02:48:40;103884.22;;;6.46;92.21
71966;BME280;59836;52.132;5.442;2023-02-12T02:51:11;103895.00;;;6.46;92.22
71966;BME280;59836;52.132;5.442;2023-02-12T02:53:45;103897.69;;;6.46;91.88
71966;BME280;59836;52.132;5.442;2023-02-12T02:56:16;103897.84;;;6.45;92.12
71966;BME280;59836;52.132;5.442;2023-02-12T02:58:53;103882.53;;;6.45;92.02
71966;BME280;59836;52.132;5.442;2023-02-12T03:01:30;103886.38;;;6.43;91.83
71966;BME280;59836;52.132;5.442;2023-02-12T03:04:20;103886.88;;;6.38;92.10
71966;BME280;59836;52.132;5.442;2023-02-12T03:06:58;103879.81;;;6.37;92.28
71966;BME280;59836;52.132;5.442;2023-02-12T03:09:31;103893.28;;;6.37;92.36
71966;BME280;59836;52.132;5.442;2023-02-12T03:12:03;103883.50;;;6.36;92.24
71966;BME280;59836;52.132;5.442;2023-02-12T03:14:35;103893.28;;;6.37;92.50
71966;BME280;59836;52.132;5.442;2023-02-12T03:17:08;103874.41;;;6.37;92.22
71966;BME280;59836;52.132;5.442;2023-02-12T03:19:46;103879.63;;;6.39;92.04
71966;BME280;59836;52.132;5.442;2023-02-12T03:22:22;103882.31;;;6.39;92.52
71966;BME280;59836;52.132;5.442;2023-02-12T03:25:35;103885.69;;;6.41;92.03
71966;BME280;59836;52.132;5.442;2023-02-12T03:28:20;103884.19;;;6.38;92.11
71966;BME280;59836;52.132;5.442;2023-02-12T03:31:11;103886.03;;;6.38;92.16
71966;BME280;59836;52.132;5.442;2023-02-12T03:34:04;103889.59;;;6.38;92.36
71966;BME280;59836;52.132;5.442;2023-02-12T03:39:44;103891.28;;;6.39;92.44
71966;BME280;59836;52.132;5.442;2023-02-12T03:47:50;103892.09;;;6.40;92.41
71966;BME280;59836;52.132;5.442;2023-02-12T03:51:02;103888.56;;;6.39;92.37
71966;BME280;59836;52.132;5.442;2023-02-12T03:53:30;103889.25;;;6.41;92.71
71966;BME280;59836;52.132;5.442;2023-02-12T03:56:03;103894.66;;;6.41;92.39
71966;BME280;59836;52.132;5.442;2023-02-12T03:58:33;103897.16;;;6.43;92.14
71966;BME280;59836;52.132;5.442;2023-02-12T04:01:01;103896.00;;;6.45;92.68
71966;BME280;59836;52.132;5.442;2023-02-12T04:03:29;103901.06;;;6.48;92.53
71966;BME280;59836;52.132;5.442;2023-02-12T04:06:00;103912.19;;;6.45;92.61
71966;BME280;59836;52.132;5.442;2023-02-12T04:08:27;103907.78;;;6.44;92.23
71966;BME280;59836;52.132;5.442;2023-02-12T04:11:06;103905.44;;;6.41;92.26
71966;BME280;59836;52.132;5.442;2023-02-12T04:14:06;103916.22;;;6.41;92.82
71966;BME280;59836;52.132;5.442;2023-02-12T04:25:39;103913.88;;;6.46;93.02
71966;BME280;59836;52.132;5.442;2023-02-12T04:34:23;103916.72;;;6.45;93.15
71966;BME280;59836;52.132;5.442;2023-02-12T04:37:05;103915.88;;;6.44;93.21
71966;BME280;59836;52.132;5.442;2023-02-12T04:39:36;103919.59;;;6.43;93.19
71966;BME280;59836;52.132;5.442;2023-02-12T04:42:04;103922.97;;;6.45;92.86
71966;BME280;59836;52.132;5.442;2023-02-12T04:44:33;103914.00;;;6.45;92.92
71966;BME280;59836;52.132;5.442;2023-02-12T04:47:02;103920.28;;;6.45;93.01
71966;BME280;59836;52.132;5.442;2023-02-12T04:49:49;103930.72;;;6.48;92.98
71966;BME280;59836;52.132;5.442;2023-02-12T04:52:23;103936.78;;;6.50;93.00
71966;BME280;59836;52.132;5.442;2023-02-12T04:54:52;103933.09;;;6.52;92.73
71966;BME280;59836;52.132;5.442;2023-02-12T04:57:19;103923.31;;;6.50;93.09
71966;BME280;59836;52.132;5.442;2023-02-12T04:59:46;103926.00;;;6.50;92.94
71966;BME280;59836;52.132;5.442;2023-02-12T05:02:13;103931.41;;;6.50;93.19
71966;BME280;59836;52.132;5.442;2023-02-12T05:04:44;103926.00;;;6.50;93.20
71966;BME280;59836;52.132;5.442;2023-02-12T05:07:11;103927.03;;;6.49;92.86
71966;BME280;59836;52.132;5.442;2023-02-12T05:09:38;103930.72;;;6.48;92.88
71966;BME280;59836;52.132;5.442;2023-02-12T05:12:09;103931.56;;;6.49;92.85
71966;BME280;59836;52.132;5.442;2023-02-12T05:14:36;103928.84;;;6.49;93.21
71966;BME280;59836;52.132;5.442;2023-02-12T05:17:02;103928.72;;;6.50;93.29
71966;BME280;59836;52.132;5.442;2023-02-12T05:19:56;103938.47;;;6.52;93.14
71966;BME280;59836;52.132;5.442;2023-02-12T05:22:22;103934.78;;;6.53;93.01
71966;BME280;59836;52.132;5.442;2023-02-12T05:24:57;103931.06;;;6.54;93.27
71966;BME280;59836;52.132;5.442;2023-02-12T05:27:31;103932.75;;;6.55;93.10
71966;BME280;59836;52.132;5.442;2023-02-12T05:29:57;103935.28;;;6.56;93.13
71966;BME280;59836;52.132;5.442;2023-02-12T05:32:24;103944.38;;;6.55;93.22
71966;BME280;59836;52.132;5.442;2023-02-12T05:34:50;103937.47;;;6.53;92.51
71966;BME280;59836;52.132;5.442;2023-02-12T05:37:24;103940.16;;;6.53;92.89
71966;BME280;59836;52.132;5.442;2023-02-12T05:39:51;103942.88;;;6.53;93.00
71966;BME280;59836;52.132;5.442;2023-02-12T05:42:25;103935.25;;;6.48;92.82
71966;BME280;59836;52.132;5.442;2023-02-12T05:44:55;103937.13;;;6.47;92.92
71966;BME280;59836;52.132;5.442;2023-02-12T05:47:25;103937.94;;;6.48;93.04
71966;BME280;59836;52.132;5.442;2023-02-12T05:50:16;103940.50;;;6.49;93.21
71966;BME280;59836;52.132;5.442;2023-02-12T05:52:45;103942.19;;;6.50;93.42
71966;BME280;59836;52.132;5.442;2023-02-12T05:55:12;103949.41;;;6.50;92.93
71966;BME280;59836;52.132;5.442;2023-02-12T05:57:38;103942.19;;;6.50;93.39
71966;BME280;59836;52.132;5.442;2023-02-12T06:00:25;103948.25;;;6.53;93.44
71966;BME280;59836;52.132;5.442;2023-02-12T06:02:52;103946.56;;;6.52;92.91
71966;BME280;59836;52.132;5.442;2023-02-12T06:05:22;103946.56;;;6.52;93.33
71966;BME280;59836;52.132;5.442;2023-02-12T06:07:48;103948.94;;;6.55;93.32
71966;BME280;59836;52.132;5.442;2023-02-12T06:10:15;103945.56;;;6.53;93.07
71966;BME280;59836;52.132;5.442;2023-02-12T06:13:04;103946.56;;;6.52;92.84
71966;BME280;59836;52.132;5.442;2023-02-12T06:15:31;103946.41;;;6.53;93.18
71966;BME280;59836;52.132;5.442;2023-02-12T06:17:57;103947.25;;;6.54;92.88
71966;BME280;59836;52.132;5.442;2023-02-12T06:20:24;103949.09;;;6.53;92.89
71966;BME280;59836;52.132;5.442;2023-02-12T06:22:50;103949.28;;;6.52;93.04
71966;BME280;59836;52.132;5.442;2023-02-12T06:25:17;103945.03;;;6.49;92.82
71966;BME280;59836;52.132;5.442;2023-02-12T06:27:43;103937.47;;;6.44;92.72
71966;BME280;59836;52.132;5.442;2023-02-12T06:30:16;103941.16;;;6.43;93.15
71966;BME280;59836;52.132;5.442;2023-02-12T06:32:53;103941.84;;;6.45;92.81
71966;BME280;59836;52.132;5.442;2023-02-12T06:35:30;103943.53;;;6.46;93.14
71966;BME280;59836;52.132;5.442;2023-02-12T06:37:56;103939.13;;;6.45;93.01
71966;BME280;59836;52.132;5.442;2023-02-12T06:40:23;103938.13;;;6.46;92.89
71966;BME280;59836;52.132;5.442;2023-02-12T06:42:49;103946.22;;;6.46;93.09
71966;BME280;59836;52.132;5.442;2023-02-12T06:45:16;103951.63;;;6.46;93.21
71966;BME280;59836;52.132;5.442;2023-02-12T06:47:49;103949.59;;;6.48;92.34
71966;BME280;59836;52.132;5.442;2023-02-12T06:50:15;103956.50;;;6.51;92.74
71966;BME280;59836;52.132;5.442;2023-02-12T06:52:42;103955.50;;;6.52;92.31
71966;BME280;59836;52.132;5.442;2023-02-12T06:55:16;103960.72;;;6.54;92.64
71966;BME280;59836;52.132;5.442;2023-02-12T06:57:43;103956.34;;;6.53;92.27
71966;BME280;59836;52.132;5.442;2023-02-12T07:00:10;103965.44;;;6.52;92.66
71966;BME280;59836;52.132;5.442;2023-02-12T07:02:37;103970.84;;;6.52;92.38
71966;BME280;59836;52.132;5.442;2023-02-12T07:05:05;103963.44;;;6.54;92.18
71966;BME280;59836;52.132;5.442;2023-02-12T07:07:33;103968.81;;;6.54;91.93
71966;BME280;59836;52.132;5.442;2023-02-12T07:09:59;103970.50;;;6.55;91.85
71966;BME280;59836;52.132;5.442;2023-02-12T07:12:28;103966.63;;;6.57;92.34
71966;BME280;59836;52.132;5.442;2023-02-12T07:14:54;103970.19;;;6.58;92.61
71966;BME280;59836;52.132;5.442;2023-02-12T07:17:28;103968.50;;;6.57;92.32
71966;BME280;59836;52.132;5.442;2023-02-12T07:19:55;103979.78;;;6.60;92.36
71966;BME280;59836;52.132;5.442;2023-02-12T07:22:22;103975.25;;;6.61;91.99
71966;BME280;59836;52.132;5.442;2023-02-12T07:24:48;103977.75;;;6.62;92.33
71966;BME280;59836;52.132;5.442;2023-02-12T07:27:16;103979.63;;;6.62;92.05
71966;BME280;59836;52.132;5.442;2023-02-12T07:29:43;103988.41;;;6.64;91.85
71966;BME280;59836;52.132;5.442;2023-02-12T07:32:09;103993.63;;;6.65;91.54
71966;BME280;59836;52.132;5.442;2023-02-12T07:34:41;103999.00;;;6.65;91.62
71966;BME280;59836;52.132;5.442;2023-02-12T07:37:10;103994.47;;;6.66;92.04
71966;BME280;59836;52.132;5.442;2023-02-12T07:39:37;103993.47;;;6.67;91.83
71966;BME280;59836;52.132;5.442;2023-02-12T07:42:04;103990.59;;;6.69;91.56
71966;BME280;59836;52.132;5.442;2023-02-12T07:44:30;103993.13;;;6.70;91.31
71966;BME280;59836;52.132;5.442;2023-02-12T07:46:59;103995.66;;;6.72;91.74
71966;BME280;59836;52.132;5.442;2023-02-12T07:49:34;104000.03;;;6.73;91.34
71966;BME280;59836;52.132;5.442;2023-02-12T07:52:00;104006.28;;;6.73;91.17
71966;BME280;59836;52.132;5.442;2023-02-12T07:54:28;104006.97;;;6.75;91.38
71966;BME280;59836;52.132;5.442;2023-02-12T07:56:54;103999.72;;;6.76;91.21
71966;BME280;59836;52.132;5.442;2023-02-12T07:59:21;104006.78;;;6.77;90.96
71966;BME280;59836;52.132;5.442;2023-02-12T08:01:49;104010.34;;;6.77;90.71
71966;BME280;59836;52.132;5.442;2023-02-12T08:04:19;104003.94;;;6.78;90.60
71966;BME280;59836;52.132;5.442;2023-02-12T08:06:48;104003.09;;;6.78;90.89
71966;BME280;59836;52.132;5.442;2023-02-12T08:09:21;104017.94;;;6.82;91.12
71966;BME280;59836;52.132;5.442;2023-02-12T08:12:04;104018.63;;;6.84;90.88
71966;BME280;59836;52.132;5.442;2023-02-12T08:14:39;104019.47;;;6.85;90.78
71966;BME280;59836;52.132;5.442;2023-02-12T08:17:06;104020.31;;;6.85;90.54
71966;BME280;59836;52.132;5.442;2023-02-12T08:19:38;104027.38;;;6.86;91.09
71966;BME280;59836;52.132;5.442;2023-02-12T08:22:08;104025.56;;;6.87;91.21
71966;BME280;59836;52.132;5.442;2023-02-12T08:24:34;104026.22;;;6.89;91.05
71966;BME280;59836;52.132;5.442;2023-02-12T08:27:01;104028.75;;;6.90;90.97
71966;BME280;59836;52.132;5.442;2023-02-12T08:29:28;104029.56;;;6.91;90.85
71966;BME280;59836;52.132;5.442;2023-02-12T08:32:11;104030.44;;;6.91;90.29
71966;BME280;59836;52.132;5.442;2023-02-12T08:34:39;104030.09;;;6.94;90.67
71966;BME280;59836;52.132;5.442;2023-02-12T08:37:09;104032.81;;;6.94;90.52
71966;BME280;59836;52.132;5.442;2023-02-12T08:39:42;104039.03;;;6.95;90.18
71966;BME280;59836;52.132;5.442;2023-02-12T08:42:12;104048.81;;;6.96;90.12
71966;BME280;59836;52.132;5.442;2023-02-12T08:44:41;104046.66;;;7.00;90.15
71966;BME280;59836;52.132;5.442;2023-02-12T08:47:07;104050.84;;;7.02;90.21
71966;BME280;59836;52.132;5.442;2023-02-12T08:49:39;104048.16;;;7.02;90.16
71966;BME280;59836;52.132;5.442;2023-02-12T08:52:08;104051.53;;;7.04;90.43
71966;BME280;59836;52.132;5.442;2023-02-12T08:54:34;104054.91;;;7.06;89.75
71966;BME280;59836;52.132;5.442;2023-02-12T08:57:01;104049.50;;;7.06;89.70
71966;BME280;59836;52.132;5.442;2023-02-12T08:59:29;104046.66;;;7.08;89.85
71966;BME280;59836;52.132;5.442;2023-02-12T09:01:55;104058.28;;;7.08;89.68
71966;BME280;59836;52.132;5.442;2023-02-12T09:04:27;104056.25;;;7.11;89.40
71966;BME280;59836;52.132;5.442;2023-02-12T09:06:55;104051.03;;;7.09;89.05
71966;BME280;59836;52.132;5.442;2023-02-12T09:09:22;104045.47;;;7.11;89.11
71966;BME280;59836;52.132;5.442;2023-02-12T09:11:56;104056.13;;;7.12;88.66
71966;BME280;59836;52.132;5.442;2023-02-12T09:14:46;104063.03;;;7.15;88.65
71966;BME280;59836;52.132;5.442;2023-02-12T09:17:19;104048.50;;;7.16;88.56
71966;BME280;59836;52.132;5.442;2023-02-12T09:19:46;104052.22;;;7.15;88.35
71966;BME280;59836;52.132;5.442;2023-02-12T09:22:13;104058.47;;;7.15;88.70
71966;BME280;59836;52.132;5.442;2023-02-12T09:24:40;104057.28;;;7.18;88.60
71966;BME280;59836;52.132;5.442;2023-02-12T09:27:06;104063.53;;;7.18;88.57
71966;BME280;59836;52.132;5.442;2023-02-12T09:29:33;104065.22;;;7.19;88.38
71966;BME280;59836;52.132;5.442;2023-02-12T09:31:59;104066.94;;;7.20;88.04
71966;BME280;59836;52.132;5.442;2023-02-12T09:34:27;104064.03;;;7.22;88.69
71966;BME280;59836;52.132;5.442;2023-02-12T09:36:55;104060.66;;;7.20;87.99
71966;BME280;59836;52.132;5.442;2023-02-12T09:39:26;104061.34;;;7.22;87.98
71966;BME280;59836;52.132;5.442;2023-02-12T09:42:25;104058.31;;;7.25;87.85
71966;BME280;59836;52.132;5.442;2023-02-12T09:48:04;104055.94;;;7.30;88.02
71966;BME280;59836;52.132;5.442;2023-02-12T09:50:32;104058.50;;;7.32;87.99
71966;BME280;59836;52.132;5.442;2023-02-12T09:53:03;104066.41;;;7.33;87.37
71966;BME280;59836;52.132;5.442;2023-02-12T09:55:32;104064.59;;;7.34;87.15
71966;BME280;59836;52.132;5.442;2023-02-12T09:58:01;104061.03;;;7.33;86.98
71966;BME280;59836;52.132;5.442;2023-02-12T10:00:31;104055.28;;;7.36;87.09
71966;BME280;59836;52.132;5.442;2023-02-12T10:03:02;104069.47;;;7.38;87.08
71966;BME280;59836;52.132;5.442;2023-02-12T10:05:38;104066.44;;;7.42;87.25
71966;BME280;59836;52.132;5.442;2023-02-12T10:08:26;104061.69;;;7.44;87.10
71966;BME280;59836;52.132;5.442;2023-02-12T10:13:34;104060.00;;;7.43;86.91
71966;BME280;59836;52.132;5.442;2023-02-12T10:27:00;104058.31;;;7.50;86.80
71966;BME280;59836;52.132;5.442;2023-02-12T10:29:31;104054.63;;;7.51;86.64
71966;BME280;59836;52.132;5.442;2023-02-12T10:32:05;104064.91;;;7.56;86.46
71966;BME280;59836;52.132;5.442;2023-02-12T10:34:35;104065.75;;;7.56;86.08
71966;BME280;59836;52.132;5.442;2023-02-12T10:37:09;104067.44;;;7.57;86.27
71966;BME280;59836;52.132;5.442;2023-02-12T10:39:42;104071.50;;;7.61;86.39
71966;BME280;59836;52.132;5.442;2023-02-12T10:42:39;104058.66;;;7.63;86.56
71966;BME280;59836;52.132;5.442;2023-02-12T10:45:13;104056.78;;;7.64;85.83
71966;BME280;59836;52.132;5.442;2023-02-12T10:47:40;104059.34;;;7.65;85.94
71966;BME280;59836;52.132;5.442;2023-02-12T10:50:38;104056.28;;;7.68;86.17
71966;BME280;59836;52.132;5.442;2023-02-12T10:53:12;104063.38;;;7.70;85.99
71966;BME280;59836;52.132;5.442;2023-02-12T10:55:42;104056.97;;;7.71;85.42
71966;BME280;59836;52.132;5.442;2023-02-12T10:58:21;104060.34;;;7.73;85.68
71966;BME280;59836;52.132;5.442;2023-02-12T11:00:58;104063.72;;;7.75;85.68
71966;BME280;59836;52.132;5.442;2023-02-12T11:03:29;104062.53;;;7.77;85.78
71966;BME280;59836;52.132;5.442;2023-02-12T11:06:32;104057.97;;;7.78;85.32
71966;BME280;59836;52.132;5.442;2023-02-12T11:08:58;104056.97;;;7.79;85.47
71966;BME280;59836;52.132;5.442;2023-02-12T11:11:30;104065.06;;;7.79;85.34
71966;BME280;59836;52.132;5.442;2023-02-12T11:16:42;104052.91;;;7.83;85.50
71966;BME280;59836;52.132;5.442;2023-02-12T11:19:28;104059.00;;;7.85;85.50
71966;BME280;59836;52.132;5.442;2023-02-12T11:22:11;104056.09;;;7.87;85.30
71966;BME280;59836;52.132;5.442;2023-02-12T11:24:45;104049.53;;;7.89;84.83
71966;BME280;59836;52.132;5.442;2023-02-12T11:27:19;104046.97;;;7.88;85.22
71966;BME280;59836;52.132;5.442;2023-02-12T11:32:47;104048.81;;;7.95;84.72
71966;BME280;59836;52.132;5.442;2023-02-12T11:35:25;104048.81;;;7.95;85.00
71966;BME280;59836;52.132;5.442;2023-02-12T11:37:58;104047.16;;;7.94;84.43
71966;BME280;59836;52.132;5.442;2023-02-12T11:40:28;104049.47;;;7.97;84.20
71966;BME280;59836;52.132;5.442;2023-02-12T11:43:01;104035.97;;;7.97;84.04
71966;BME280;59836;52.132;5.442;2023-02-12T11:45:33;104043.06;;;7.98;84.05
71966;BME280;59836;52.132;5.442;2023-02-12T11:48:12;104035.63;;;8.01;84.67
71966;BME280;59836;52.132;5.442;2023-02-12T11:50:50;104035.28;;;8.04;84.70
71966;BME280;59836;52.132;5.442;2023-02-12T11:53:29;104041.69;;;8.03;84.11
71966;BME280;59836;52.132;5.442;2023-02-12T11:56:04;104041.69;;;8.03;84.00
71966;BME280;59836;52.132;5.442;2023-02-12T11:58:32;104035.94;;;8.06;84.03
71966;BME280;59836;52.132;5.442;2023-02-12T12:01:20;104034.25;;;8.05;83.44
71966;BME280;59836;52.132;5.442;2023-02-12T12:06:50;104026.47;;;8.10;83.36
71966;BME280;59836;52.132;5.442;2023-02-12T12:12:39;104024.63;;;8.10;82.39
71966;BME280;59836;52.132;5.442;2023-02-12T12:15:22;104019.88;;;8.12;82.73
71966;BME280;59836;52.132;5.442;2023-02-12T12:18:31;104018.69;;;8.15;82.72
71966;BME280;59836;52.132;5.442;2023-02-12T12:24:59;104014.28;;;8.14;82.09
71966;BME280;59836;52.132;5.442;2023-02-12T12:27:39;104013.28;;;8.15;81.36
71966;BME280;59836;52.132;5.442;2023-02-12T12:30:43;104005.69;;;8.19;81.68
71966;BME280;59836;52.132;5.442;2023-02-12T12:33:32;104007.34;;;8.20;80.93
71966;BME280;59836;52.132;5.442;2023-02-12T12:38:58;103999.41;;;8.18;81.22
71966;BME280;59836;52.132;5.442;2023-02-12T12:49:46;104002.44;;;8.23;80.75
71966;BME280;59836;52.132;5.442;2023-02-12T12:55:51;103990.44;;;8.26;80.91
71966;BME280;59836;52.132;5.442;2023-02-12T13:01:30;103994.97;;;8.25;80.16
71966;BME280;59836;52.132;5.442;2023-02-12T13:04:08;103991.25;;;8.26;79.77
71966;BME280;59836;52.132;5.442;2023-02-12T13:06:55;103984.16;;;8.25;80.23
71966;BME280;59836;52.132;5.442;2023-02-12T13:09:53;103989.22;;;8.28;80.55
71966;BME280;59836;52.132;5.442;2023-02-12T13:12:38;103978.75;;;8.25;79.62
71966;BME280;59836;52.132;5.442;2023-02-12T13:15:32;103984.53;;;8.22;80.13
71966;BME280;59836;52.132;5.442;2023-02-12T13:18:19;103977.44;;;8.21;80.20
71966;BME280;59836;52.132;5.442;2023-02-12T13:23:50;103969.97;;;8.23;80.02
71966;BME280;59836;52.132;5.442;2023-02-12T13:26:54;103982.31;;;8.26;79.70
71966;BME280;59836;52.132;5.442;2023-02-12T13:29:47;103969.97;;;8.23;79.44
71966;BME280;59836;52.132;5.442;2023-02-12T13:34:45;103964.56;;;8.23;79.52
71966;BME280;59836;52.132;5.442;2023-02-12T13:37:42;103959.53;;;8.20;79.22
71966;BME280;59836;52.132;5.442;2023-02-12T13:40:25;103964.94;;;8.20;79.65
71966;BME280;59836;52.132;5.442;2023-02-12T13:42:57;103965.25;;;8.25;79.93
71966;BME280;59836;52.132;5.442;2023-02-12T13:51:42;103959.66;;;8.27;79.85
71966;BME280;59836;52.132;5.442;2023-02-12T13:56:42;103951.72;;;8.25;79.27
71966;BME280;59836;52.132;5.442;2023-02-12T14:02:09;103949.22;;;8.24;78.68
71966;BME280;59836;52.132;5.442;2023-02-12T14:04:57;103946.84;;;8.21;79.28
71966;BME280;59836;52.132;5.442;2023-02-12T14:07:56;103952.06;;;8.22;79.30
71966;BME280;59836;52.132;5.442;2023-02-12T14:10:36;103949.38;;;8.22;79.29
71966;BME280;59836;52.132;5.442;2023-02-12T14:15:42;103947.53;;;8.23;79.16
71966;BME280;59836;52.132;5.442;2023-02-12T14:23:34;103936.19;;;8.19;79.03
71966;BME280;59836;52.132;5.442;2023-02-12T14:26:08;103938.75;;;8.21;78.69
71966;BME280;59836;52.132;5.442;2023-02-12T14:28:55;103933.16;;;8.22;78.85
71966;BME280;59836;52.132;5.442;2023-02-12T14:46:55;103928.63;;;8.15;77.97
71966;BME280;59836;52.132;5.442;2023-02-12T14:49:51;103921.53;;;8.13;78.38
71966;BME280;59836;52.132;5.442;2023-02-12T14:52:31;103927.97;;;8.12;78.64
71966;BME280;59836;52.132;5.442;2023-02-12T14:55:04;103929.00;;;8.11;77.59
71966;BME280;59836;52.132;5.442;2023-02-12T14:57:38;103923.75;;;8.10;78.37
71966;BME280;59836;52.132;5.442;2023-02-12T15:02:58;103930.16;;;8.09;78.81
71966;BME280;59836;52.132;5.442;2023-02-12T15:05:35;103932.19;;;8.07;78.39
71966;BME280;59836;52.132;5.442;2023-02-12T15:08:25;103933.88;;;8.08;78.94
71966;BME280;59836;52.132;5.442;2023-02-12T15:13:31;103934.25;;;8.05;77.75
71966;BME280;59836;52.132;5.442;2023-02-12T15:16:21;103930.72;;;8.04;78.13
71966;BME280;59836;52.132;5.442;2023-02-12T15:19:17;103930.88;;;8.03;78.08
71966;BME280;59836;52.132;5.442;2023-02-12T15:21:45;103935.44;;;8.02;78.85
71966;BME280;59836;52.132;5.442;2023-02-12T15:24:13;103921.06;;;8.02;78.61
71966;BME280;59836;52.132;5.442;2023-02-12T15:26:48;103930.19;;;8.01;78.62
71966;BME280;59836;52.132;5.442;2023-02-12T15:29:19;103931.22;;;8.00;78.59
71966;BME280;59836;52.132;5.442;2023-02-12T15:31:51;103924.31;;;7.97;78.72
71966;BME280;59836;52.132;5.442;2023-02-12T15:34:21;103924.47;;;7.95;78.12
71966;BME280;59836;52.132;5.442;2023-02-12T15:36:49;103925.53;;;7.94;78.62
71966;BME280;59836;52.132;5.442;2023-02-12T15:39:19;103928.22;;;7.94;78.70
71966;BME280;59836;52.132;5.442;2023-02-12T15:41:47;103922.97;;;7.93;79.19
71966;BME280;59836;52.132;5.442;2023-02-12T15:44:31;103920.47;;;7.91;79.33
71966;BME280;59836;52.132;5.442;2023-02-12T15:47:12;103918.59;;;7.92;79.67
71966;BME280;59836;52.132;5.442;2023-02-12T15:49:41;103916.09;;;7.90;78.49